createdAt,value
2018-06-30T00:00:05.941Z,6.47
2018-06-30T00:01:09.359Z,7.47
2018-06-30T00:02:12.693Z,7.70
2018-06-30T00:03:16.337Z,6.30
2018-06-30T00:04:19.710Z,6.10
2018-06-30T00:05:23.110Z,7.17
2018-06-30T00:06:27.675Z,7.40
2018-06-30T00:07:30.957Z,5.80
2018-06-30T00:08:34.308Z,6.90
2018-06-30T00:09:37.677Z,6.40
2018-06-30T00:10:41.021Z,6.53
2018-06-30T00:11:44.575Z,6.80
2018-06-30T00:12:47.943Z,6.87
2018-06-30T00:13:51.670Z,6.17
2018-06-30T00:14:55.103Z,5.67
2018-06-30T00:15:58.216Z,7.23
2018-06-30T00:17:01.720Z,7.17
2018-06-30T00:18:05.089Z,6.80
2018-06-30T00:19:08.563Z,6.70
2018-06-30T00:20:12.005Z,6.23
2018-06-30T00:21:15.345Z,6.50
2018-06-30T00:22:18.735Z,5.87
2018-06-30T00:23:22.189Z,6.83
2018-06-30T00:24:25.540Z,7.30
2018-06-30T00:25:29.048Z,7.70
2018-06-30T00:26:32.385Z,7.03
2018-06-30T00:27:35.761Z,7.10
2018-06-30T00:28:39.354Z,7.07
2018-06-30T00:29:42.669Z,6.57
2018-06-30T00:30:45.997Z,6.40
2018-06-30T00:31:49.329Z,7.20
2018-06-30T00:32:53.099Z,6.40
2018-06-30T00:33:56.416Z,6.13
2018-06-30T00:34:59.768Z,6.60
2018-06-30T00:36:03.327Z,7.87
2018-06-30T00:37:06.653Z,6.20
2018-06-30T00:38:10.131Z,6.70
2018-06-30T00:39:13.523Z,6.57
2018-06-30T00:40:16.860Z,6.20
2018-06-30T00:41:20.187Z,6.40
2018-06-30T00:42:23.520Z,6.10
2018-06-30T00:43:26.916Z,7.10
2018-06-30T00:44:30.297Z,7.17
2018-06-30T00:45:33.663Z,6.70
2018-06-30T00:46:36.987Z,6.33
2018-06-30T00:47:40.381Z,5.70
2018-06-30T00:48:43.721Z,7.00
2018-06-30T00:49:47.062Z,6.50
2018-06-30T00:50:50.386Z,6.80
2018-06-30T00:51:53.958Z,6.70
2018-06-30T00:52:57.434Z,7.30
2018-06-30T00:54:00.756Z,6.83
2018-06-30T00:55:04.109Z,6.27
2018-06-30T00:56:07.512Z,6.97
2018-06-30T00:57:11.093Z,6.53
2018-06-30T00:58:14.401Z,7.03
2018-06-30T00:59:17.718Z,6.13
2018-06-30T01:00:21.099Z,7.30
2018-06-30T01:01:24.677Z,7.93
2018-06-30T01:02:28.017Z,6.60
2018-06-30T01:03:31.422Z,7.33
2018-06-30T01:04:34.889Z,7.10
2018-06-30T01:05:38.241Z,7.13
2018-06-30T01:06:41.576Z,6.80
2018-06-30T01:07:45.055Z,7.00
2018-06-30T01:08:48.485Z,6.90
2018-06-30T01:09:51.957Z,7.67
2018-06-30T01:10:55.308Z,7.80
2018-06-30T01:11:58.856Z,6.47
2018-06-30T01:13:02.009Z,6.47
2018-06-30T01:14:05.486Z,7.10
2018-06-30T01:15:08.986Z,5.50
2018-06-30T01:16:12.338Z,7.10
2018-06-30T01:17:15.930Z,7.00
2018-06-30T01:18:19.246Z,6.33
2018-06-30T01:19:22.622Z,7.60
2018-06-30T01:20:26.223Z,6.20
2018-06-30T01:21:29.560Z,6.67
2018-06-30T01:22:33.426Z,6.77
2018-06-30T01:23:36.736Z,6.67
2018-06-30T01:24:40.177Z,7.07
2018-06-30T01:25:43.568Z,7.83
2018-06-30T01:26:46.880Z,6.90
2018-06-30T01:27:50.212Z,7.10
2018-06-30T01:28:53.604Z,7.30
2018-06-30T01:29:56.912Z,6.70
2018-06-30T01:31:00.217Z,5.93
2018-06-30T01:32:03.574Z,6.70
2018-06-30T01:33:06.944Z,6.40
2018-06-30T01:34:10.272Z,6.57
2018-06-30T01:35:13.707Z,7.50
2018-06-30T01:36:17.071Z,6.00
2018-06-30T01:37:20.420Z,7.00
2018-06-30T01:38:23.444Z,7.43
2018-06-30T01:39:26.846Z,7.27
2018-06-30T01:40:30.326Z,6.90
2018-06-30T01:41:33.688Z,6.90
2018-06-30T01:42:37.402Z,6.10
2018-06-30T01:43:40.774Z,7.20
2018-06-30T01:44:44.241Z,5.80
2018-06-30T01:45:47.580Z,6.73
2018-06-30T01:46:50.915Z,7.60
2018-06-30T01:47:53.980Z,7.70
2018-06-30T01:48:57.357Z,7.03
2018-06-30T01:50:00.689Z,7.87
2018-06-30T01:51:04.033Z,8.40
2018-06-30T01:52:07.361Z,6.83
2018-06-30T01:53:10.941Z,7.10
2018-06-30T01:54:14.268Z,7.10
2018-06-30T01:55:17.597Z,7.37
2018-06-30T01:56:20.907Z,7.67
2018-06-30T01:57:24.430Z,7.70
2018-06-30T01:58:27.766Z,6.80
2018-06-30T01:59:31.132Z,7.50
2018-06-30T02:00:34.466Z,8.60
2018-06-30T02:01:37.789Z,7.50
2018-06-30T02:02:41.317Z,7.93
2018-06-30T02:03:44.818Z,6.67
2018-06-30T02:04:48.171Z,7.30
2018-06-30T02:05:51.488Z,7.47
2018-06-30T02:06:54.801Z,6.73
2018-06-30T02:07:58.242Z,7.07
2018-06-30T02:09:01.524Z,8.13
2018-06-30T02:10:04.863Z,7.10
2018-06-30T02:11:08.377Z,7.90
2018-06-30T02:12:11.700Z,6.90
2018-06-30T02:13:15.122Z,7.67
2018-06-30T02:14:18.441Z,6.90
2018-06-30T02:15:21.772Z,6.63
2018-06-30T02:16:25.087Z,7.30
2018-06-30T02:17:28.425Z,6.93
2018-06-30T02:18:31.849Z,7.20
2018-06-30T02:19:35.202Z,8.30
2018-06-30T02:20:38.532Z,7.87
2018-06-30T02:21:41.895Z,7.43
2018-06-30T02:22:45.306Z,7.83
2018-06-30T02:23:48.961Z,7.87
2018-06-30T02:24:52.272Z,7.93
2018-06-30T02:25:55.588Z,6.80
2018-06-30T02:26:58.913Z,7.60
2018-06-30T02:28:02.268Z,8.37
2018-06-30T02:29:05.731Z,8.23
2018-06-30T02:30:09.056Z,7.23
2018-06-30T02:31:12.425Z,7.30
2018-06-30T02:32:15.866Z,6.73
2018-06-30T02:33:19.221Z,6.20
2018-06-30T02:34:22.597Z,7.60
2018-06-30T02:35:25.930Z,6.87
2018-06-30T02:36:29.249Z,7.40
2018-06-30T02:37:32.635Z,7.77
2018-06-30T02:38:36.009Z,6.83
2018-06-30T02:39:39.358Z,7.73
2018-06-30T02:40:42.788Z,6.60
2018-06-30T02:41:46.092Z,7.40
2018-06-30T02:42:49.595Z,6.70
2018-06-30T02:43:52.950Z,6.73
2018-06-30T02:44:56.388Z,6.73
2018-06-30T02:45:59.759Z,7.00
2018-06-30T02:47:03.017Z,5.93
2018-06-30T02:48:06.373Z,6.70
2018-06-30T02:49:09.693Z,6.93
2018-06-30T02:50:13.057Z,7.00
2018-06-30T02:51:16.391Z,6.50
2018-06-30T02:52:19.934Z,6.40
2018-06-30T02:53:23.277Z,6.20
2018-06-30T02:54:26.646Z,7.00
2018-06-30T02:55:30.010Z,7.63
2018-06-30T02:56:33.320Z,6.10
2018-06-30T02:57:36.681Z,7.10
2018-06-30T02:58:40.120Z,5.93
2018-06-30T02:59:43.429Z,7.00
2018-06-30T03:00:46.776Z,7.07
2018-06-30T03:01:50.201Z,6.27
2018-06-30T03:02:53.664Z,5.90
2018-06-30T03:03:56.988Z,5.60
2018-06-30T03:05:00.481Z,6.50
2018-06-30T03:06:03.815Z,5.90
2018-06-30T03:07:07.226Z,6.30
2018-06-30T03:08:10.586Z,5.90
2018-06-30T03:09:13.707Z,6.07
2018-06-30T03:10:17.103Z,6.03
2018-06-30T03:11:20.458Z,7.23
2018-06-30T03:12:23.922Z,6.60
2018-06-30T03:13:27.288Z,5.90
2018-06-30T03:14:30.677Z,7.07
2018-06-30T03:15:34.066Z,6.17
2018-06-30T03:16:37.496Z,6.53
2018-06-30T03:17:40.931Z,6.50
2018-06-30T03:18:44.900Z,6.57
2018-06-30T03:19:48.578Z,5.87
2018-06-30T03:20:51.951Z,7.43
2018-06-30T03:21:55.862Z,6.67
2018-06-30T03:22:59.307Z,6.10
2018-06-30T03:24:02.656Z,6.57
2018-06-30T03:25:06.006Z,6.07
2018-06-30T03:26:09.408Z,6.87
2018-06-30T03:27:12.733Z,6.27
2018-06-30T03:28:16.096Z,7.40
2018-06-30T03:29:19.434Z,5.73
2018-06-30T03:30:22.803Z,6.20
2018-06-30T03:31:41.368Z,7.00
2018-06-30T03:32:44.697Z,6.33
2018-06-30T03:33:48.161Z,6.70
2018-06-30T03:34:51.508Z,7.77
2018-06-30T03:35:55.089Z,6.83
2018-06-30T03:36:58.456Z,6.63
2018-06-30T03:38:01.775Z,6.20
2018-06-30T03:39:06.361Z,6.37
2018-06-30T03:40:09.663Z,5.93
2018-06-30T03:41:13.092Z,6.40
2018-06-30T03:42:16.547Z,5.77
2018-06-30T03:43:19.903Z,5.87
2018-06-30T03:44:23.313Z,6.13
2018-06-30T03:45:26.743Z,7.17
2018-06-30T03:46:30.182Z,6.53
2018-06-30T03:47:33.618Z,5.77
2018-06-30T03:48:37.048Z,6.73
2018-06-30T03:49:40.373Z,6.20
2018-06-30T03:50:43.720Z,5.70
2018-06-30T03:51:47.042Z,6.10
2018-06-30T03:52:50.425Z,5.83
2018-06-30T03:53:54.254Z,5.40
2018-06-30T03:54:57.641Z,5.30
2018-06-30T03:56:00.995Z,6.40
2018-06-30T03:57:04.409Z,5.70
2018-06-30T03:58:07.973Z,6.53
2018-06-30T03:59:11.302Z,6.10
2018-06-30T04:00:14.612Z,5.90
2018-06-30T04:01:17.930Z,6.23
2018-06-30T04:02:21.227Z,5.80
2018-06-30T04:03:24.546Z,6.90
2018-06-30T04:04:27.882Z,6.47
2018-06-30T04:05:31.194Z,6.13
2018-06-30T04:06:34.582Z,5.67
2018-06-30T04:07:38.236Z,4.90
2018-06-30T04:08:41.604Z,6.30
2018-06-30T04:09:45.078Z,5.40
2018-06-30T04:10:48.492Z,5.03
2018-06-30T04:11:51.835Z,5.60
2018-06-30T04:12:55.188Z,5.07
2018-06-30T04:13:58.525Z,5.40
2018-06-30T04:15:02.281Z,5.20
2018-06-30T04:16:06.035Z,5.33
2018-06-30T04:17:09.368Z,4.80
2018-06-30T04:18:12.744Z,5.40
2018-06-30T04:19:16.765Z,5.50
2018-06-30T04:20:20.174Z,5.00
2018-06-30T04:21:23.501Z,4.90
2018-06-30T04:22:26.844Z,4.70
2018-06-30T04:23:30.135Z,5.13
2018-06-30T04:24:33.454Z,5.80
2018-06-30T04:25:37.018Z,6.10
2018-06-30T04:26:41.457Z,5.50
2018-06-30T04:27:44.793Z,6.23
2018-06-30T04:28:48.133Z,6.37
2018-06-30T04:29:51.653Z,5.27
2018-06-30T04:30:54.989Z,5.27
2018-06-30T04:31:58.466Z,5.10
2018-06-30T04:33:01.925Z,5.83
2018-06-30T04:34:05.470Z,5.30
2018-06-30T04:35:08.850Z,5.40
2018-06-30T04:36:12.160Z,5.70
2018-06-30T04:37:15.484Z,5.37
2018-06-30T04:38:18.804Z,5.20
2018-06-30T04:39:22.188Z,4.90
2018-06-30T04:40:25.505Z,4.80
2018-06-30T04:41:29.140Z,5.60
2018-06-30T04:42:32.543Z,4.97
2018-06-30T04:43:35.888Z,4.90
2018-06-30T04:44:39.484Z,4.73
2018-06-30T04:45:42.857Z,4.60
2018-06-30T04:46:46.232Z,5.70
2018-06-30T04:47:49.745Z,4.97
2018-06-30T04:48:53.245Z,4.50
2018-06-30T04:49:56.600Z,4.70
2018-06-30T04:50:59.915Z,3.87
2018-06-30T04:52:03.246Z,5.00
2018-06-30T04:53:06.652Z,4.33
2018-06-30T04:54:10.156Z,4.70
2018-06-30T04:55:13.198Z,5.40
2018-06-30T04:56:16.590Z,4.60
2018-06-30T04:57:20.144Z,4.77
2018-06-30T04:58:23.553Z,4.20
2018-06-30T04:59:26.868Z,4.27
2018-06-30T05:00:30.189Z,4.40
2018-06-30T05:01:33.642Z,4.50
2018-06-30T05:02:36.976Z,4.60
2018-06-30T05:03:40.343Z,3.93
2018-06-30T05:04:43.860Z,4.17
2018-06-30T05:05:47.332Z,4.50
2018-06-30T05:06:50.676Z,4.53
2018-06-30T05:07:54.012Z,4.47
2018-06-30T05:08:57.371Z,4.40
2018-06-30T05:10:00.759Z,4.17
2018-06-30T05:11:04.261Z,3.90
2018-06-30T05:12:07.594Z,4.00
2018-06-30T05:13:11.039Z,4.90
2018-06-30T05:14:14.507Z,3.90
2018-06-30T05:15:17.955Z,4.50
2018-06-30T05:16:21.459Z,5.70
2018-06-30T05:17:24.810Z,3.97
2018-06-30T05:18:28.129Z,4.73
2018-06-30T05:19:31.463Z,3.27
2018-06-30T05:20:34.890Z,4.70
2018-06-30T05:21:38.205Z,4.30
2018-06-30T05:22:41.572Z,4.97
2018-06-30T05:23:44.986Z,4.60
2018-06-30T05:24:48.474Z,4.47
2018-06-30T05:25:52.134Z,4.33
2018-06-30T05:26:55.463Z,4.70
2018-06-30T05:27:58.817Z,4.70
2018-06-30T05:29:02.132Z,5.17
2018-06-30T05:30:05.897Z,4.43
2018-06-30T05:31:09.287Z,5.37
2018-06-30T05:32:12.789Z,4.10
2018-06-30T05:33:16.208Z,4.67
2018-06-30T05:34:19.505Z,4.37
2018-06-30T05:35:22.858Z,4.63
2018-06-30T05:36:26.184Z,3.83
2018-06-30T05:37:29.589Z,4.40
2018-06-30T05:38:32.982Z,4.67
2018-06-30T05:39:36.278Z,4.20
2018-06-30T05:40:39.668Z,4.87
2018-06-30T05:41:43.093Z,3.60
2018-06-30T05:42:46.506Z,4.43
2018-06-30T05:43:51.628Z,3.80
2018-06-30T05:44:54.956Z,3.70
2018-06-30T05:45:58.332Z,4.93
2018-06-30T05:47:01.737Z,4.03
2018-06-30T05:48:05.815Z,3.57
2018-06-30T05:49:09.228Z,3.90
2018-06-30T05:50:13.402Z,4.33
2018-06-30T05:51:16.762Z,3.70
2018-06-30T05:52:20.227Z,3.73
2018-06-30T05:53:23.645Z,3.93
2018-06-30T05:54:27.026Z,3.73
2018-06-30T05:55:30.364Z,4.00
2018-06-30T05:56:34.024Z,3.20
2018-06-30T05:57:37.588Z,3.63
2018-06-30T05:58:41.094Z,3.83
2018-06-30T05:59:44.597Z,2.90
2018-06-30T06:00:48.226Z,3.43
2018-06-30T06:01:51.938Z,3.30
2018-06-30T06:02:55.438Z,3.60
2018-06-30T06:03:58.889Z,3.33
2018-06-30T06:05:02.468Z,4.17
2018-06-30T06:06:05.805Z,3.43
2018-06-30T06:07:09.109Z,3.30
2018-06-30T06:08:12.448Z,3.60
2018-06-30T06:09:15.905Z,3.33
2018-06-30T06:10:19.477Z,3.57
2018-06-30T06:11:22.961Z,3.63
2018-06-30T06:12:26.526Z,4.00
2018-06-30T06:13:29.924Z,4.17
2018-06-30T06:14:33.298Z,3.83
2018-06-30T06:15:36.955Z,3.23
2018-06-30T06:16:40.769Z,3.53
2018-06-30T06:17:44.136Z,3.43
2018-06-30T06:18:47.538Z,3.40
2018-06-30T06:19:51.467Z,3.70
2018-06-30T06:20:55.159Z,3.67
2018-06-30T06:21:58.556Z,3.20
2018-06-30T06:23:01.910Z,3.60
2018-06-30T06:24:05.579Z,3.27
2018-06-30T06:25:09.175Z,2.87
2018-06-30T06:26:12.694Z,3.37
2018-06-30T06:27:16.114Z,3.60
2018-06-30T06:28:19.482Z,3.53
2018-06-30T06:29:23.032Z,3.60
2018-06-30T06:30:26.462Z,3.33
2018-06-30T06:31:30.472Z,3.40
2018-06-30T06:32:34.430Z,3.43
2018-06-30T06:33:37.935Z,3.40
2018-06-30T06:34:41.272Z,3.40
2018-06-30T06:35:44.693Z,4.60
2018-06-30T06:36:48.110Z,3.90
2018-06-30T06:37:51.230Z,4.80
2018-06-30T06:38:54.590Z,4.87
2018-06-30T06:39:58.214Z,4.37
2018-06-30T06:41:01.790Z,5.00
2018-06-30T06:42:05.140Z,4.67
2018-06-30T06:43:08.521Z,4.03
2018-06-30T06:44:11.903Z,4.30
2018-06-30T06:45:15.085Z,4.00
2018-06-30T06:46:18.479Z,3.80
2018-06-30T06:47:22.072Z,3.87
2018-06-30T06:48:25.391Z,3.70
2018-06-30T06:49:29.154Z,3.60
2018-06-30T06:50:32.610Z,3.50
2018-06-30T06:51:35.993Z,3.20
2018-06-30T06:52:39.463Z,3.20
2018-06-30T06:53:42.820Z,3.30
2018-06-30T06:54:46.186Z,2.93
2018-06-30T06:55:49.664Z,3.37
2018-06-30T06:56:53.059Z,2.70
2018-06-30T06:57:56.730Z,3.07
2018-06-30T06:59:00.461Z,3.93
2018-06-30T07:00:05.183Z,3.30
2018-06-30T07:01:08.256Z,2.93
2018-06-30T07:02:11.627Z,3.90
2018-06-30T07:03:15.066Z,3.10
2018-06-30T07:04:18.417Z,2.80
2018-06-30T07:05:21.919Z,3.47
2018-06-30T07:06:25.576Z,3.80
2018-06-30T07:07:30.196Z,3.20
2018-06-30T07:08:33.878Z,3.40
2018-06-30T07:09:37.455Z,3.53
2018-06-30T07:10:40.787Z,4.13
2018-06-30T07:11:44.124Z,3.57
2018-06-30T07:12:52.511Z,3.43
2018-06-30T07:13:56.042Z,2.77
2018-06-30T07:15:00.820Z,3.30
2018-06-30T07:16:06.366Z,3.90
2018-06-30T07:17:09.689Z,3.47
2018-06-30T07:18:13.098Z,3.20
2018-06-30T07:19:16.499Z,3.60
2018-06-30T07:20:19.851Z,3.20
2018-06-30T07:21:23.260Z,3.27
2018-06-30T07:22:26.686Z,3.00
2018-06-30T07:23:30.151Z,3.70
2018-06-30T07:24:33.621Z,3.40
2018-06-30T07:25:37.000Z,2.67
2018-06-30T07:26:40.413Z,3.97
2018-06-30T07:27:43.797Z,3.43
2018-06-30T07:28:47.875Z,3.30
2018-06-30T07:29:51.232Z,3.47
2018-06-30T07:30:54.740Z,3.30
2018-06-30T07:31:58.130Z,3.77
2018-06-30T07:33:01.744Z,3.37
2018-06-30T07:34:05.083Z,3.37
2018-06-30T07:35:08.450Z,3.20
2018-06-30T07:36:11.906Z,2.77
2018-06-30T07:37:16.290Z,2.90
2018-06-30T07:38:19.674Z,2.90
2018-06-30T07:39:23.390Z,3.17
2018-06-30T07:40:27.048Z,3.13
2018-06-30T07:41:30.523Z,4.03
2018-06-30T07:42:34.795Z,3.33
2018-06-30T07:43:38.565Z,3.70
2018-06-30T07:44:42.257Z,3.83
2018-06-30T07:45:45.699Z,2.87
2018-06-30T07:46:49.154Z,2.70
2018-06-30T07:47:52.513Z,3.67
2018-06-30T07:48:55.988Z,3.40
2018-06-30T07:49:59.487Z,3.43
2018-06-30T07:51:03.425Z,2.90
2018-06-30T07:52:06.802Z,3.27
2018-06-30T07:53:10.289Z,3.17
2018-06-30T07:54:14.106Z,2.50
2018-06-30T07:55:17.904Z,2.90
2018-06-30T07:56:21.353Z,3.87
2018-06-30T07:57:25.013Z,3.50
2018-06-30T07:58:28.445Z,3.80
2018-06-30T07:59:32.259Z,4.40
2018-06-30T08:00:36.768Z,3.77
2018-06-30T08:01:40.548Z,4.33
2018-06-30T08:02:44.003Z,7.43
2018-06-30T08:03:48.388Z,9.40
2018-06-30T08:04:51.952Z,10.43
2018-06-30T08:05:55.701Z,9.93
2018-06-30T08:06:59.232Z,8.97
2018-06-30T08:08:03.201Z,8.43
2018-06-30T08:09:08.667Z,8.17
2018-06-30T08:10:14.533Z,9.20
2018-06-30T08:11:17.964Z,7.50
2018-06-30T08:12:21.965Z,8.40
2018-06-30T08:13:25.347Z,7.27
2018-06-30T08:14:28.953Z,7.97
2018-06-30T08:15:32.541Z,6.70
2018-06-30T08:16:36.496Z,7.80
2018-06-30T08:17:39.520Z,7.60
2018-06-30T08:18:43.286Z,7.80
2018-06-30T08:19:46.835Z,13.23
2018-06-30T08:20:50.584Z,9.10
2018-06-30T08:21:53.929Z,7.20
2018-06-30T08:22:57.511Z,6.50
2018-06-30T08:24:01.245Z,6.30
2018-06-30T08:25:04.848Z,6.17
2018-06-30T08:26:08.807Z,5.47
2018-06-30T08:28:43.765Z,5.80
2018-06-30T08:29:47.722Z,5.90
2018-06-30T08:30:51.095Z,5.63
2018-06-30T08:31:54.757Z,4.83
2018-06-30T08:32:58.254Z,5.10
2018-06-30T08:34:01.576Z,3.90
2018-06-30T08:35:05.462Z,3.90
2018-06-30T08:36:17.068Z,3.87
2018-06-30T08:37:20.846Z,3.50
2018-06-30T08:38:24.432Z,4.03
2018-06-30T08:39:28.161Z,4.03
2018-06-30T08:40:32.499Z,3.57
2018-06-30T08:41:36.904Z,3.57
2018-06-30T08:42:41.006Z,3.63
2018-06-30T08:43:44.529Z,4.30
2018-06-30T08:44:48.950Z,4.27
2018-06-30T08:45:52.746Z,3.77
2018-06-30T08:46:56.403Z,3.87
2018-06-30T08:48:00.034Z,3.77
2018-06-30T08:49:03.610Z,3.87
2018-06-30T08:50:07.061Z,3.43
2018-06-30T08:51:17.791Z,4.83
2018-06-30T08:52:21.642Z,6.03
2018-06-30T08:53:25.110Z,6.57
2018-06-30T08:54:28.606Z,5.80
2018-06-30T08:55:32.279Z,6.00
2018-06-30T08:56:35.695Z,7.27
2018-06-30T08:57:39.150Z,5.17
2018-06-30T08:58:42.694Z,4.10
2018-06-30T08:59:46.332Z,5.13
2018-06-30T09:00:50.696Z,3.50
2018-06-30T09:01:54.924Z,5.20
2018-06-30T09:02:58.319Z,4.40
2018-06-30T09:04:02.912Z,3.70
2018-06-30T09:05:07.225Z,4.43
2018-06-30T09:06:10.700Z,4.03
2018-06-30T09:07:17.621Z,3.80
2018-06-30T09:08:21.340Z,3.77
2018-06-30T09:09:24.865Z,3.70
2018-06-30T09:10:28.514Z,4.50
2018-06-30T09:11:32.078Z,3.77
2018-06-30T09:12:35.949Z,3.80
2018-06-30T09:13:40.829Z,4.20
2018-06-30T09:14:44.333Z,3.73
2018-06-30T09:15:48.032Z,4.97
2018-06-30T09:16:52.102Z,4.10
2018-06-30T09:17:55.737Z,3.50
2018-06-30T09:18:59.702Z,3.17
2018-06-30T09:20:04.241Z,2.83
2018-06-30T09:21:07.776Z,3.70
2018-06-30T09:22:11.115Z,3.60
2018-06-30T09:23:15.265Z,4.20
2018-06-30T09:24:18.846Z,5.47
2018-06-30T09:25:22.916Z,5.17
2018-06-30T09:26:26.474Z,5.43
2018-06-30T09:27:32.653Z,7.13
2018-06-30T09:28:36.764Z,7.57
2018-06-30T09:29:40.803Z,7.63
2018-06-30T09:30:44.790Z,7.00
2018-06-30T09:31:48.179Z,8.53
2018-06-30T09:32:52.086Z,10.30
2018-06-30T09:33:55.948Z,7.53
2018-06-30T09:34:59.685Z,6.80
2018-06-30T09:36:03.105Z,7.50
2018-06-30T09:37:06.677Z,5.80
2018-06-30T09:38:10.122Z,6.00
2018-06-30T09:39:13.486Z,7.17
2018-06-30T09:40:16.977Z,8.10
2018-06-30T09:41:20.320Z,7.17
2018-06-30T09:42:23.764Z,6.63
2018-06-30T09:43:27.908Z,5.93
2018-06-30T09:44:31.483Z,4.10
2018-06-30T09:45:36.365Z,4.60
2018-06-30T09:46:39.925Z,5.20
2018-06-30T09:47:43.492Z,6.60
2018-06-30T09:48:47.424Z,6.13
2018-06-30T09:49:50.833Z,5.10
2018-06-30T09:50:54.577Z,4.93
2018-06-30T09:51:58.376Z,5.47
2018-06-30T09:53:01.912Z,5.10
2018-06-30T09:54:05.809Z,5.20
2018-06-30T09:55:09.765Z,5.40
2018-06-30T09:56:13.244Z,6.73
2018-06-30T09:57:17.133Z,5.73
2018-06-30T09:58:20.731Z,6.07
2018-06-30T09:59:24.122Z,5.33
2018-06-30T10:00:33.139Z,5.43
2018-06-30T10:01:36.467Z,6.67
2018-06-30T10:02:40.054Z,6.37
2018-06-30T10:03:43.495Z,6.07
2018-06-30T10:04:53.483Z,5.47
2018-06-30T10:05:57.668Z,7.10
2018-06-30T10:07:01.162Z,7.30
2018-06-30T10:08:05.002Z,7.07
2018-06-30T10:09:10.431Z,7.23
2018-06-30T10:10:13.960Z,6.70
2018-06-30T10:11:17.578Z,6.27
2018-06-30T10:12:21.203Z,7.50
2018-06-30T10:13:24.936Z,4.90
2018-06-30T10:14:28.745Z,7.90
2018-06-30T10:15:32.324Z,8.53
2018-06-30T10:16:35.808Z,6.70
2018-06-30T10:17:39.318Z,8.83
2018-06-30T10:18:43.289Z,10.30
2018-06-30T10:19:47.129Z,10.37
2018-06-30T10:20:50.245Z,9.80
2018-06-30T10:21:53.806Z,8.30
2018-06-30T10:22:57.537Z,10.67
2018-06-30T10:24:01.870Z,10.20
2018-06-30T10:25:05.982Z,11.03
2018-06-30T10:26:09.555Z,6.20
2018-06-30T10:27:16.412Z,6.87
2018-06-30T10:28:19.820Z,6.90
2018-06-30T10:29:23.687Z,7.47
2018-06-30T10:30:27.083Z,6.30
2018-06-30T10:31:30.412Z,6.67
2018-06-30T10:32:33.882Z,5.80
2018-06-30T10:33:37.512Z,5.93
2018-06-30T10:34:40.932Z,6.87
2018-06-30T10:35:44.447Z,7.43
2018-06-30T10:36:47.987Z,6.80
2018-06-30T10:37:51.350Z,6.90
2018-06-30T10:38:54.855Z,5.90
2018-06-30T10:39:58.396Z,5.47
2018-06-30T10:41:02.238Z,6.47
2018-06-30T10:42:06.220Z,5.73
2018-06-30T10:43:10.027Z,6.90
2018-06-30T10:44:13.639Z,7.83
2018-06-30T10:45:17.412Z,7.30
2018-06-30T10:46:21.167Z,4.33
2018-06-30T10:47:24.729Z,6.40
2018-06-30T10:48:28.329Z,7.77
2018-06-30T10:49:32.433Z,6.50
2018-06-30T10:50:35.769Z,6.80
2018-06-30T10:51:39.405Z,6.43
2018-06-30T10:52:42.813Z,6.60
2018-06-30T10:53:46.175Z,7.13
2018-06-30T10:54:49.657Z,6.07
2018-06-30T10:55:53.050Z,5.30
2018-06-30T10:56:57.452Z,5.47
2018-06-30T10:58:00.789Z,5.67
2018-06-30T10:59:04.332Z,5.70
2018-06-30T11:00:07.966Z,5.50
2018-06-30T11:01:11.629Z,5.30
2018-06-30T11:02:14.995Z,5.97
2018-06-30T11:03:18.477Z,5.70
2018-06-30T11:04:22.245Z,5.63
2018-06-30T11:05:26.033Z,4.70
2018-06-30T11:06:30.092Z,5.97
2018-06-30T11:07:33.739Z,6.20
2018-06-30T11:08:37.858Z,5.90
2018-06-30T11:09:41.421Z,6.30
2018-06-30T11:10:44.760Z,5.83
2018-06-30T11:11:48.251Z,4.90
2018-06-30T11:12:52.225Z,5.67
2018-06-30T11:13:55.672Z,4.67
2018-06-30T11:14:59.230Z,4.83
2018-06-30T11:16:02.709Z,4.43
2018-06-30T11:17:06.914Z,4.57
2018-06-30T11:18:10.538Z,4.60
2018-06-30T11:19:14.070Z,5.07
2018-06-30T11:20:18.397Z,4.70
2018-06-30T11:21:22.078Z,4.37
2018-06-30T11:22:25.498Z,5.00
2018-06-30T11:23:29.086Z,3.87
2018-06-30T11:24:32.499Z,4.60
2018-06-30T11:25:38.778Z,4.00
2018-06-30T11:26:42.216Z,4.23
2018-06-30T11:27:45.626Z,4.87
2018-06-30T11:28:49.287Z,4.67
2018-06-30T11:29:52.769Z,3.63
2018-06-30T11:30:56.325Z,3.90
2018-06-30T11:31:59.748Z,4.50
2018-06-30T11:33:03.370Z,4.03
2018-06-30T11:34:06.709Z,3.57
2018-06-30T11:35:10.348Z,4.07
2018-06-30T11:36:13.936Z,4.80
2018-06-30T11:37:17.699Z,3.50
2018-06-30T11:38:21.180Z,3.50
2018-06-30T11:39:24.721Z,3.67
2018-06-30T11:40:27.773Z,3.27
2018-06-30T11:41:31.139Z,3.63
2018-06-30T11:42:34.974Z,4.10
2018-06-30T11:43:38.747Z,3.87
2018-06-30T11:44:42.474Z,3.13
2018-06-30T11:45:46.147Z,4.27
2018-06-30T11:46:49.574Z,4.00
2018-06-30T11:47:54.917Z,3.37
2018-06-30T11:48:58.928Z,4.13
2018-06-30T11:50:02.497Z,4.17
2018-06-30T11:51:06.212Z,3.23
2018-06-30T11:52:09.550Z,3.67
2018-06-30T11:53:12.924Z,5.40
2018-06-30T11:54:16.446Z,4.33
2018-06-30T11:55:20.136Z,3.47
2018-06-30T11:56:23.589Z,3.73
2018-06-30T11:57:27.079Z,5.00
2018-06-30T11:58:30.633Z,3.87
2018-06-30T11:59:34.338Z,3.80
2018-06-30T12:00:38.561Z,3.30
2018-06-30T12:01:42.460Z,4.93
2018-06-30T12:02:45.893Z,4.23
2018-06-30T12:03:49.763Z,4.13
2018-06-30T12:04:53.310Z,3.77
2018-06-30T12:05:56.987Z,4.33
2018-06-30T12:07:00.363Z,3.80
2018-06-30T12:08:06.092Z,3.87
2018-06-30T12:09:10.494Z,3.70
2018-06-30T12:10:13.868Z,3.57
2018-06-30T12:11:17.232Z,3.47
2018-06-30T12:12:20.617Z,2.93
2018-06-30T12:13:24.161Z,4.83
2018-06-30T12:14:27.537Z,4.00
2018-06-30T12:15:30.978Z,3.20
2018-06-30T12:16:34.310Z,3.23
2018-06-30T12:17:37.660Z,3.30
2018-06-30T12:18:41.037Z,4.30
2018-06-30T12:19:50.372Z,4.17
2018-06-30T12:20:53.732Z,4.00
2018-06-30T12:21:57.229Z,3.63
2018-06-30T12:23:00.648Z,4.30
2018-06-30T12:24:04.052Z,4.27
2018-06-30T12:25:07.490Z,3.50
2018-06-30T12:26:11.003Z,3.80
2018-06-30T12:27:14.341Z,3.97
2018-06-30T12:28:17.681Z,3.57
2018-06-30T12:29:23.430Z,4.20
2018-06-30T12:30:26.990Z,3.27
2018-06-30T12:31:30.492Z,3.60
2018-06-30T12:32:33.983Z,3.73
2018-06-30T12:33:37.312Z,3.57
2018-06-30T12:34:40.710Z,4.60
2018-06-30T12:35:44.163Z,3.30
2018-06-30T12:36:47.525Z,3.00
2018-06-30T12:37:51.012Z,3.30
2018-06-30T12:38:54.439Z,2.70
2018-06-30T12:39:58.278Z,4.73
2018-06-30T12:41:01.732Z,7.67
2018-06-30T12:42:05.625Z,6.10
2018-06-30T12:43:09.116Z,5.27
2018-06-30T12:44:12.676Z,5.33
2018-06-30T12:45:16.348Z,6.27
2018-06-30T12:46:20.091Z,4.47
2018-06-30T12:47:23.572Z,4.23
2018-06-30T12:48:26.961Z,4.87
2018-06-30T12:49:30.304Z,5.13
2018-06-30T12:50:33.826Z,4.30
2018-06-30T12:51:37.334Z,5.00
2018-06-30T12:52:41.945Z,4.60
2018-06-30T12:53:45.610Z,4.30
2018-06-30T12:54:49.076Z,4.10
2018-06-30T12:55:52.568Z,3.60
2018-06-30T12:56:55.949Z,3.77
2018-06-30T12:57:59.413Z,3.07
2018-06-30T12:59:03.006Z,3.40
2018-06-30T13:00:06.969Z,3.57
2018-06-30T13:01:10.868Z,4.00
2018-06-30T13:02:14.627Z,3.47
2018-06-30T13:03:18.115Z,3.93
2018-06-30T13:04:21.480Z,4.10
2018-06-30T13:05:24.815Z,3.53
2018-06-30T13:06:28.204Z,3.57
2018-06-30T13:07:31.555Z,3.10
2018-06-30T13:08:35.081Z,3.40
2018-06-30T13:09:38.623Z,2.70
2018-06-30T13:10:42.102Z,4.10
2018-06-30T13:11:45.445Z,3.43
2018-06-30T13:12:49.034Z,2.80
2018-06-30T13:13:52.385Z,3.00
2018-06-30T13:14:55.778Z,3.87
2018-06-30T13:15:59.101Z,3.30
2018-06-30T13:17:04.524Z,2.93
2018-06-30T13:18:08.178Z,3.90
2018-06-30T13:19:11.724Z,4.00
2018-06-30T13:20:15.076Z,2.83
2018-06-30T13:21:29.949Z,3.10
2018-06-30T13:22:33.343Z,3.37
2018-06-30T13:23:36.687Z,3.10
2018-06-30T13:24:40.465Z,3.37
2018-06-30T13:25:43.879Z,3.40
2018-06-30T13:26:47.424Z,3.53
2018-06-30T13:27:50.947Z,3.20
2018-06-30T13:28:54.314Z,3.70
2018-06-30T13:29:57.693Z,3.43
2018-06-30T13:31:01.247Z,2.90
2018-06-30T13:32:04.576Z,4.03
2018-06-30T13:33:07.908Z,3.30
2018-06-30T13:34:11.253Z,3.00
2018-06-30T13:35:14.693Z,3.07
2018-06-30T13:36:18.240Z,2.70
2018-06-30T13:37:21.305Z,3.27
2018-06-30T13:38:24.689Z,3.03
2018-06-30T13:39:28.063Z,3.10
2018-06-30T13:40:31.433Z,3.03
2018-06-30T13:41:34.772Z,3.20
2018-06-30T13:42:38.345Z,3.27
2018-06-30T13:43:41.554Z,3.60
2018-06-30T13:44:44.995Z,4.10
2018-06-30T13:45:48.925Z,4.20
2018-06-30T13:46:53.033Z,3.13
2018-06-30T13:47:56.348Z,3.10
2018-06-30T13:49:00.055Z,4.10
2018-06-30T13:50:03.779Z,3.00
2018-06-30T13:51:06.838Z,3.37
2018-06-30T13:52:10.305Z,3.23
2018-06-30T13:53:14.078Z,3.00
2018-06-30T13:54:17.527Z,3.40
2018-06-30T13:55:20.964Z,3.00
2018-06-30T13:56:24.316Z,3.03
2018-06-30T13:57:27.721Z,3.20
2018-06-30T13:58:31.119Z,2.80
2018-06-30T13:59:34.474Z,3.23
2018-06-30T14:00:37.969Z,2.87
2018-06-30T14:01:41.418Z,2.77
2018-06-30T14:02:44.923Z,3.30
2018-06-30T14:03:48.316Z,3.23
2018-06-30T14:04:51.759Z,3.07
2018-06-30T14:05:55.332Z,3.20
2018-06-30T14:06:58.737Z,3.40
2018-06-30T14:08:02.049Z,3.30